Terminal Aerodrome Forecast
Issued by NWS

Home | Current Version | Previous Version | Text Only | Print | Product List | Glossary On
Versions: 1 2 3 4 5 6 7 8 9 10 11 12 13 14 15
000
FTUS44 KMAF 270010 AAA
TAFCNM
TAF AMD
KCNM 270010Z 2700/2724 16011KT P6SM BKN090 BKN150
      TEMPO 2700/2703 VRB15G25KT 4SM TSRA BR BKN080CB
     FM270300 15009KT P6SM FEW250=

USA.gov is the U.S. government's official web portal to all federal, state and local government web resources and services.